< < Back
Terminal Aerodrome Forecast


Current Version              Previous Versions:   1  2  3  4  5  6  7  8  9  

Terminal Aerodrome Forecast

564
FTUS42 KTAE 311442 AAA
TAFABY
TAF AMD
KABY 311442Z 3115/0112 00000KT 5SM BR OVC002
     FM311700 25009KT P6SM BKN040
      TEMPO 3118/3122 VRB15G25KT 3SM TSRA OVC050CB
     FM010000 24007KT P6SM BKN100
     FM010700 24003KT 4SM BR OVC050=

Latest METAR

771
SAUS70 KWBC 311600 RRG
MTRABY
METAR KABY 311553Z 22007KT 7SM OVC006 19/17 A3014 RMK AO2 SLP204
T01890167


USA.gov is the U.S. government's official web portal to all federal, state and local government web resources and services.